createdAt,value
2019-05-06T00:01:33.775Z,7.00
2019-05-06T00:04:01.050Z,6.93
2019-05-06T00:06:30.192Z,6.87
2019-05-06T00:08:59.054Z,6.82
2019-05-06T00:11:26.197Z,6.78
2019-05-06T00:13:54.272Z,6.73
2019-05-06T00:16:23.800Z,6.67
2019-05-06T00:18:50.700Z,6.59
2019-05-06T00:21:17.770Z,6.54
2019-05-06T00:23:49.570Z,6.51
2019-05-06T00:26:34.978Z,6.47
2019-05-06T00:29:14.371Z,6.41
2019-05-06T00:31:41.444Z,6.38
2019-05-06T00:34:08.501Z,6.33
2019-05-06T00:36:35.575Z,6.28
2019-05-06T00:39:14.966Z,6.25
2019-05-06T00:41:43.439Z,6.22
2019-05-06T00:44:10.595Z,6.15
2019-05-06T00:46:37.663Z,6.10
2019-05-06T00:49:04.751Z,6.05
2019-05-06T00:51:33.765Z,6.01
2019-05-06T00:54:10.363Z,5.97
2019-05-06T00:56:37.430Z,5.93
2019-05-06T00:59:04.506Z,5.87
2019-05-06T01:01:31.587Z,5.83
2019-05-06T01:03:58.666Z,5.79
2019-05-06T01:06:25.731Z,5.77
2019-05-06T01:08:54.372Z,5.74
2019-05-06T01:11:23.821Z,5.68
2019-05-06T01:13:57.404Z,5.64
2019-05-06T01:16:24.973Z,5.60
2019-05-06T01:18:54.102Z,5.58
2019-05-06T01:21:21.108Z,5.55
2019-05-06T01:23:48.168Z,5.53
2019-05-06T01:26:15.770Z,5.52
2019-05-06T01:28:43.680Z,5.49
2019-05-06T01:31:10.747Z,5.46
2019-05-06T01:33:37.806Z,5.45
2019-05-06T01:36:04.891Z,5.42
2019-05-06T01:38:37.598Z,5.38
2019-05-06T01:41:25.683Z,5.34
2019-05-06T01:43:54.640Z,5.30
2019-05-06T01:46:24.201Z,5.24
2019-05-06T01:48:51.091Z,5.21
2019-05-06T01:51:19.465Z,5.18
2019-05-06T01:53:47.063Z,5.11
2019-05-06T01:56:14.581Z,5.03
2019-05-06T01:58:43.883Z,4.97
2019-05-06T02:01:10.693Z,4.93
2019-05-06T02:03:37.764Z,4.90
2019-05-06T02:06:05.099Z,4.88
2019-05-06T02:08:33.708Z,4.86
2019-05-06T02:11:00.835Z,4.84
2019-05-06T02:13:27.905Z,4.80
2019-05-06T02:15:54.961Z,4.76
2019-05-06T02:18:24.252Z,4.75
2019-05-06T02:20:53.785Z,4.70
2019-05-06T02:23:24.201Z,4.65
2019-05-06T02:25:53.979Z,4.59
2019-05-06T02:28:21.122Z,4.56
2019-05-06T02:31:11.015Z,4.56
2019-05-06T02:34:06.749Z,4.57
2019-05-06T02:36:45.600Z,4.57
2019-05-06T02:39:14.042Z,4.54
2019-05-06T02:41:43.043Z,4.48
2019-05-06T02:44:13.617Z,4.44
2019-05-06T02:46:44.148Z,4.43
2019-05-06T02:49:17.665Z,4.43
2019-05-06T02:51:44.731Z,4.43
2019-05-06T02:54:13.540Z,4.42
2019-05-06T02:56:43.335Z,4.41
2019-05-06T02:59:12.564Z,4.40
2019-05-06T03:01:38.744Z,4.40
2019-05-06T03:04:05.827Z,4.40
2019-05-06T03:06:33.730Z,4.40
2019-05-06T03:09:03.126Z,4.37
2019-05-06T03:11:32.967Z,4.35
2019-05-06T03:13:59.298Z,4.32
2019-05-06T03:16:26.355Z,4.30
2019-05-06T03:18:53.641Z,4.28
2019-05-06T03:21:44.876Z,4.28
2019-05-06T03:24:29.094Z,4.28
2019-05-06T03:26:56.929Z,4.28
2019-05-06T03:29:25.359Z,4.26
2019-05-06T03:31:56.348Z,4.25
2019-05-06T03:34:48.974Z,4.25
2019-05-06T03:36:56.030Z,4.26
2019-05-06T03:39:23.260Z,4.26
2019-05-06T03:41:53.482Z,4.25
2019-05-06T03:44:19.437Z,4.27
2019-05-06T03:47:05.704Z,4.32
2019-05-06T03:49:35.721Z,4.35
2019-05-06T03:52:03.000Z,4.42
2019-05-06T03:54:34.025Z,4.47
2019-05-06T03:57:03.147Z,4.52
2019-05-06T03:59:33.312Z,4.59
2019-05-06T04:01:59.041Z,4.64
2019-05-06T04:04:26.109Z,4.71
2019-05-06T04:06:53.955Z,4.78
2019-05-06T04:09:23.775Z,4.85
2019-05-06T04:11:53.889Z,4.91
2019-05-06T04:14:23.702Z,4.98
2019-05-06T04:17:03.207Z,5.04
2019-05-06T04:19:38.078Z,5.14
2019-05-06T04:22:33.093Z,5.25
2019-05-06T04:25:19.747Z,5.35
2019-05-06T04:27:53.961Z,5.44
2019-05-06T04:30:24.066Z,5.53
2019-05-06T04:32:52.898Z,5.61
2019-05-06T04:35:19.158Z,5.69
2019-05-06T04:37:46.549Z,5.79
2019-05-06T04:40:13.612Z,5.89
2019-05-06T04:42:43.922Z,5.94
2019-05-06T04:45:09.978Z,6.01
2019-05-06T04:47:37.040Z,6.10
2019-05-06T04:50:05.359Z,6.18
2019-05-06T04:52:34.237Z,6.26
2019-05-06T04:55:03.370Z,6.33
2019-05-06T04:57:33.592Z,6.42
2019-05-06T05:00:03.801Z,6.51
2019-05-06T05:02:29.308Z,6.57
2019-05-06T05:04:56.377Z,6.64
2019-05-06T05:07:23.939Z,6.74
2019-05-06T05:09:53.916Z,6.79
2019-05-06T05:12:33.458Z,6.86
2019-05-06T05:15:12.147Z,6.93
2019-05-06T05:17:49.794Z,7.02
2019-05-06T05:20:16.858Z,7.09
2019-05-06T05:22:43.921Z,7.16
2019-05-06T05:25:12.204Z,7.20
2019-05-06T05:27:39.450Z,7.24
2019-05-06T05:30:07.014Z,7.26
2019-05-06T05:32:34.301Z,7.23
2019-05-06T05:35:02.136Z,7.26
2019-05-06T05:37:29.259Z,7.29
2019-05-06T05:39:56.328Z,7.35
2019-05-06T05:42:33.330Z,7.40
2019-05-06T05:45:02.713Z,7.46
2019-05-06T05:47:29.716Z,7.50
2019-05-06T05:50:25.875Z,7.57
2019-05-06T05:52:52.962Z,7.66
2019-05-06T05:55:21.954Z,7.74
2019-05-06T05:57:49.474Z,7.75
2019-05-06T06:00:17.552Z,7.78
2019-05-06T06:02:44.695Z,7.83
2019-05-06T06:05:12.408Z,7.87
2019-05-06T06:07:39.812Z,7.90
2019-05-06T06:10:18.294Z,7.93
2019-05-06T06:12:47.355Z,7.95
2019-05-06T06:15:42.237Z,8.00
2019-05-06T06:18:28.687Z,8.11
2019-05-06T06:21:17.036Z,8.18
2019-05-06T06:23:37.750Z,8.18
2019-05-06T06:26:04.945Z,8.17
2019-05-06T06:28:33.293Z,8.17
2019-05-06T06:31:08.201Z,8.16
2019-05-06T06:33:35.294Z,8.16
2019-05-06T06:36:17.685Z,8.19
2019-05-06T06:38:49.440Z,8.26
2019-05-06T06:41:16.726Z,8.36
2019-05-06T06:43:45.967Z,8.47
2019-05-06T06:46:13.039Z,8.58
2019-05-06T06:48:40.148Z,8.63
2019-05-06T06:51:07.221Z,8.72
2019-05-06T06:53:34.295Z,8.84
2019-05-06T06:56:21.878Z,8.88
2019-05-06T06:59:22.178Z,8.92
2019-05-06T07:02:02.725Z,8.99
2019-05-06T07:04:35.185Z,9.06
2019-05-06T07:07:03.177Z,9.19
2019-05-06T07:09:32.245Z,9.34
2019-05-06T07:11:59.390Z,9.55
2019-05-06T07:14:26.471Z,9.60
2019-05-06T07:16:53.556Z,9.75
2019-05-06T07:19:29.758Z,9.92
2019-05-06T07:21:57.546Z,10.03
2019-05-06T07:24:24.620Z,10.15
2019-05-06T07:26:56.309Z,10.43
2019-05-06T07:29:26.483Z,10.57
2019-05-06T07:31:53.509Z,10.59
2019-05-06T07:34:22.738Z,10.72
2019-05-06T07:36:49.747Z,10.71
2019-05-06T07:39:16.826Z,10.68
2019-05-06T07:41:48.641Z,10.70
2019-05-06T07:44:29.912Z,10.68
2019-05-06T07:47:06.736Z,10.69
2019-05-06T07:49:33.809Z,10.68
2019-05-06T07:52:02.863Z,10.64
2019-05-06T07:54:30.158Z,10.67
2019-05-06T07:56:57.699Z,10.73
2019-05-06T07:59:24.789Z,10.64
2019-05-06T08:01:54.047Z,10.64
2019-05-06T08:04:23.106Z,10.59
2019-05-06T08:06:52.275Z,10.44
2019-05-06T08:09:19.319Z,10.52
2019-05-06T08:11:46.406Z,10.60
2019-05-06T08:14:13.475Z,10.73
2019-05-06T08:16:50.319Z,10.71
2019-05-06T08:19:17.384Z,10.80
2019-05-06T08:21:46.349Z,10.83
2019-05-06T08:24:13.428Z,10.84
2019-05-06T08:26:42.722Z,10.80
2019-05-06T08:29:09.467Z,10.90
2019-05-06T08:31:36.634Z,10.87
2019-05-06T08:34:05.864Z,10.83
2019-05-06T08:36:53.201Z,10.73
2019-05-06T08:39:22.024Z,10.79
2019-05-06T08:41:49.240Z,10.83
2019-05-06T08:44:16.343Z,10.96
2019-05-06T08:46:43.771Z,11.10
2019-05-06T08:49:12.302Z,11.27
2019-05-06T08:51:45.759Z,11.34
2019-05-06T08:54:19.381Z,11.39
2019-05-06T08:56:46.459Z,11.47
2019-05-06T08:59:14.016Z,11.59
2019-05-06T09:01:46.994Z,11.63
2019-05-06T09:04:16.332Z,11.67
2019-05-06T09:06:43.387Z,11.57
2019-05-06T09:09:12.809Z,11.41
2019-05-06T09:11:39.505Z,11.33
2019-05-06T09:14:09.691Z,11.11
2019-05-06T09:16:35.733Z,11.07
2019-05-06T09:19:04.508Z,11.08
2019-05-06T09:21:33.545Z,11.22
2019-05-06T09:24:02.318Z,11.41
2019-05-06T09:26:44.110Z,11.65
2019-05-06T09:29:15.144Z,11.68
2019-05-06T09:31:45.368Z,11.75
2019-05-06T09:34:27.855Z,11.87
2019-05-06T09:37:13.336Z,12.01
2019-05-06T09:39:43.032Z,12.05
2019-05-06T09:42:12.650Z,12.06
2019-05-06T09:44:42.694Z,12.07
2019-05-06T09:47:14.311Z,12.06
2019-05-06T09:49:42.612Z,12.18
2019-05-06T09:52:09.822Z,12.37
2019-05-06T09:54:55.551Z,12.48
2019-05-06T09:57:28.363Z,12.54
2019-05-06T09:59:55.449Z,12.86
2019-05-06T10:02:23.162Z,13.04
2019-05-06T10:04:52.241Z,12.99
2019-05-06T10:07:19.342Z,12.65
2019-05-06T10:09:46.441Z,12.31
2019-05-06T10:12:13.512Z,12.22
2019-05-06T10:14:42.974Z,12.19
2019-05-06T10:17:09.658Z,12.33
2019-05-06T10:19:37.043Z,12.63
2019-05-06T10:22:04.123Z,12.92
2019-05-06T10:24:32.374Z,13.07
2019-05-06T10:26:59.558Z,13.18
2019-05-06T10:29:43.397Z,13.33
2019-05-06T10:32:25.550Z,13.53
2019-05-06T10:34:52.803Z,13.58
2019-05-06T10:37:36.251Z,13.63
2019-05-06T10:40:22.661Z,13.41
2019-05-06T10:43:02.682Z,13.43
2019-05-06T10:45:32.454Z,13.57
2019-05-06T10:47:59.706Z,13.78
2019-05-06T10:50:29.518Z,13.94
2019-05-06T10:53:14.896Z,13.99
2019-05-06T10:55:45.344Z,13.65
2019-05-06T10:58:12.821Z,13.37
2019-05-06T11:00:42.318Z,13.10
2019-05-06T11:03:15.508Z,12.91
2019-05-06T11:05:43.337Z,12.94
2019-05-06T11:08:10.817Z,13.03
2019-05-06T11:10:41.389Z,13.03
2019-05-06T11:13:08.874Z,12.79
2019-05-06T11:15:36.122Z,12.60
2019-05-06T11:18:04.747Z,12.44
2019-05-06T11:20:33.558Z,12.44
2019-05-06T11:23:02.094Z,12.47
2019-05-06T11:25:32.305Z,12.47
2019-05-06T11:27:59.527Z,12.50
2019-05-06T11:30:45.131Z,12.54
2019-05-06T11:33:32.930Z,12.45
2019-05-06T11:36:15.275Z,12.31
2019-05-06T11:38:43.179Z,12.22
2019-05-06T11:41:12.997Z,12.40
2019-05-06T11:43:39.422Z,12.50
2019-05-06T11:46:08.958Z,12.68
2019-05-06T11:48:37.232Z,12.85
2019-05-06T11:51:06.314Z,12.95
2019-05-06T11:53:33.411Z,12.86
2019-05-06T11:56:02.149Z,12.72
2019-05-06T11:58:46.437Z,12.51
2019-05-06T12:01:20.336Z,12.09
2019-05-06T12:03:47.403Z,11.91
2019-05-06T12:06:14.475Z,11.76
2019-05-06T12:08:43.197Z,11.69
2019-05-06T12:11:12.661Z,11.49
2019-05-06T12:13:39.461Z,11.53
2019-05-06T12:16:06.539Z,11.51
2019-05-06T12:18:33.651Z,11.65
2019-05-06T12:21:11.009Z,11.90
2019-05-06T12:23:29.678Z,12.25
2019-05-06T12:25:56.835Z,12.57
2019-05-06T12:28:23.919Z,12.81
2019-05-06T12:30:52.444Z,13.02
2019-05-06T12:33:39.294Z,13.18
2019-05-06T12:36:17.986Z,13.32
2019-05-06T12:39:06.552Z,13.39
2019-05-06T12:41:34.332Z,13.53
2019-05-06T12:44:03.117Z,13.70
2019-05-06T12:46:35.848Z,13.78
2019-05-06T12:49:03.269Z,13.81
2019-05-06T12:51:32.244Z,13.56
2019-05-06T12:53:59.483Z,13.17
2019-05-06T12:56:26.573Z,12.88
2019-05-06T12:58:53.641Z,12.80
2019-05-06T13:01:20.739Z,12.87
2019-05-06T13:03:47.812Z,13.08
2019-05-06T13:06:14.913Z,13.36
2019-05-06T13:08:56.719Z,13.65
2019-05-06T13:11:12.957Z,13.82
2019-05-06T13:13:55.553Z,13.75
2019-05-06T13:16:08.919Z,13.61
2019-05-06T13:18:35.987Z,13.51
2019-05-06T13:21:06.450Z,13.43
2019-05-06T13:23:41.044Z,13.44
2019-05-06T13:26:08.287Z,13.44
2019-05-06T13:28:38.262Z,13.39
2019-05-06T13:31:19.460Z,13.36
2019-05-06T13:33:55.133Z,13.40
2019-05-06T13:36:22.832Z,13.50
2019-05-06T13:38:56.626Z,13.58
2019-05-06T13:41:19.223Z,13.46
2019-05-06T13:43:54.943Z,13.34
2019-05-06T13:46:25.332Z,13.23
2019-05-06T13:49:13.352Z,13.12
2019-05-06T13:51:43.119Z,12.99
2019-05-06T13:54:13.644Z,12.79
2019-05-06T13:56:39.283Z,12.65
2019-05-06T13:59:06.370Z,12.44
2019-05-06T14:01:46.180Z,12.33
2019-05-06T14:04:13.856Z,12.32
2019-05-06T14:06:43.146Z,12.35
2019-05-06T14:09:25.590Z,12.42
2019-05-06T14:11:38.879Z,12.47
2019-05-06T14:14:05.953Z,12.30
2019-05-06T14:16:33.576Z,12.29
2019-05-06T14:19:03.990Z,12.31
2019-05-06T14:21:32.409Z,12.27
2019-05-06T14:23:59.551Z,12.21
2019-05-06T14:26:38.678Z,12.23
2019-05-06T14:29:14.415Z,12.04
2019-05-06T14:31:45.001Z,11.83
2019-05-06T14:34:14.229Z,11.58
2019-05-06T14:36:43.372Z,11.52
2019-05-06T14:39:23.677Z,11.51
2019-05-06T14:41:53.527Z,11.47
2019-05-06T14:44:23.099Z,11.38
2019-05-06T14:46:56.022Z,11.21
2019-05-06T14:49:23.093Z,11.06
2019-05-06T14:51:50.158Z,11.02
2019-05-06T14:54:17.227Z,11.04
2019-05-06T14:56:53.246Z,11.17
2019-05-06T14:59:20.160Z,11.25
2019-05-06T15:01:47.235Z,11.33
2019-05-06T15:04:14.291Z,11.42
2019-05-06T15:06:42.554Z,11.39
2019-05-06T15:09:13.406Z,11.36
2019-05-06T15:11:43.161Z,11.21
2019-05-06T15:14:09.682Z,10.98
2019-05-06T15:16:36.766Z,10.68
2019-05-06T15:19:05.046Z,10.49
2019-05-06T15:21:37.802Z,10.51
2019-05-06T15:24:02.636Z,10.55
2019-05-06T15:26:29.914Z,10.55
2019-05-06T15:28:56.982Z,10.52
2019-05-06T15:31:32.689Z,10.49
2019-05-06T15:34:02.573Z,10.50
2019-05-06T15:36:38.764Z,10.54
2019-05-06T15:39:06.483Z,10.62
2019-05-06T15:41:33.561Z,10.71
2019-05-06T15:44:02.843Z,10.80
2019-05-06T15:46:29.674Z,11.00
2019-05-06T15:48:58.531Z,11.14
2019-05-06T15:51:34.870Z,11.26
2019-05-06T15:54:03.563Z,11.31
2019-05-06T15:56:32.742Z,11.53
2019-05-06T15:58:59.651Z,11.77
2019-05-06T16:01:28.525Z,11.85
2019-05-06T16:03:55.595Z,11.61
2019-05-06T16:06:22.971Z,11.39
2019-05-06T16:08:52.623Z,11.21
2019-05-06T16:11:22.162Z,11.04
2019-05-06T16:13:48.799Z,10.96
2019-05-06T16:16:15.877Z,11.03
2019-05-06T16:18:42.964Z,11.28
2019-05-06T16:21:10.241Z,11.64
2019-05-06T16:23:42.411Z,11.83
2019-05-06T16:26:09.579Z,11.88
2019-05-06T16:28:36.646Z,11.74
2019-05-06T16:31:04.516Z,11.53
2019-05-06T16:33:32.941Z,11.38
2019-05-06T16:36:00.244Z,11.14
2019-05-06T16:38:27.314Z,11.08
2019-05-06T16:41:09.098Z,11.05
2019-05-06T16:43:23.358Z,11.09
2019-05-06T16:45:53.251Z,11.00
2019-05-06T16:48:22.734Z,10.96
2019-05-06T16:50:49.865Z,10.94
2019-05-06T16:53:19.934Z,10.86
2019-05-06T16:55:58.701Z,10.79
2019-05-06T16:58:28.331Z,10.73
2019-05-06T17:00:55.390Z,10.56
2019-05-06T17:03:38.622Z,10.52
2019-05-06T17:06:25.310Z,10.50
2019-05-06T17:08:52.906Z,10.37
2019-05-06T17:11:28.017Z,10.23
2019-05-06T17:13:49.138Z,10.18
2019-05-06T17:16:16.363Z,10.14
2019-05-06T17:18:43.442Z,10.11
2019-05-06T17:21:10.539Z,9.92
2019-05-06T17:23:42.328Z,9.74
2019-05-06T17:26:09.403Z,9.58
2019-05-06T17:28:57.166Z,9.55
2019-05-06T17:31:42.244Z,9.60
2019-05-06T17:34:09.951Z,9.81
2019-05-06T17:36:38.530Z,10.02
2019-05-06T17:39:09.666Z,10.23
2019-05-06T17:41:45.953Z,10.43
2019-05-06T17:44:07.014Z,10.52
2019-05-06T17:46:39.707Z,10.71
2019-05-06T17:49:21.562Z,11.06
2019-05-06T17:52:13.889Z,11.21
2019-05-06T17:54:42.871Z,11.23
2019-05-06T17:57:12.203Z,11.41
2019-05-06T17:59:38.915Z,11.34
2019-05-06T18:02:10.044Z,11.12
2019-05-06T18:04:37.102Z,10.91
2019-05-06T18:07:04.206Z,10.71
2019-05-06T18:09:33.445Z,10.58
2019-05-06T18:12:03.107Z,10.56
2019-05-06T18:14:32.645Z,10.60
2019-05-06T18:16:59.543Z,10.67
2019-05-06T18:19:26.611Z,10.71
2019-05-06T18:21:53.815Z,10.72
2019-05-06T18:24:22.899Z,10.69
2019-05-06T18:26:49.847Z,10.59
2019-05-06T18:29:16.920Z,10.46
2019-05-06T18:31:45.166Z,10.29
2019-05-06T18:34:12.891Z,10.20
2019-05-06T18:36:40.123Z,10.16
2019-05-06T18:39:07.406Z,10.11
2019-05-06T18:41:35.102Z,10.01
2019-05-06T18:44:02.416Z,9.89
2019-05-06T18:46:29.525Z,9.79
2019-05-06T18:48:57.835Z,9.66
2019-05-06T18:51:24.914Z,9.44
2019-05-06T18:53:52.505Z,9.30
2019-05-06T18:56:19.680Z,9.17
2019-05-06T18:58:46.800Z,9.04
2019-05-06T19:01:13.892Z,8.95
2019-05-06T19:03:55.393Z,8.86
2019-05-06T19:06:23.685Z,8.82
2019-05-06T19:09:06.658Z,8.77
2019-05-06T19:11:33.794Z,8.72
2019-05-06T19:14:02.107Z,8.71
2019-05-06T19:16:29.409Z,8.71
2019-05-06T19:18:56.498Z,8.72
2019-05-06T19:21:24.524Z,8.73
2019-05-06T19:23:51.938Z,8.68
2019-05-06T19:26:20.642Z,8.64
2019-05-06T19:28:48.143Z,8.59
2019-05-06T19:31:15.222Z,8.54
2019-05-06T19:33:43.066Z,8.54
2019-05-06T19:36:12.455Z,8.57
2019-05-06T19:38:39.262Z,8.59
2019-05-06T19:41:07.127Z,8.61
2019-05-06T19:43:34.211Z,8.61
2019-05-06T19:46:02.613Z,8.63
2019-05-06T19:48:32.648Z,8.63
2019-05-06T19:50:58.952Z,8.63
2019-05-06T19:53:26.027Z,8.62
2019-05-06T19:55:53.111Z,8.61
2019-05-06T19:58:20.200Z,8.58
2019-05-06T20:00:47.286Z,8.53
2019-05-06T20:03:14.774Z,8.54
2019-05-06T20:06:04.264Z,8.54
2019-05-06T20:08:43.815Z,8.56
2019-05-06T20:11:25.594Z,8.52
2019-05-06T20:13:52.720Z,8.46
2019-05-06T20:16:20.289Z,8.42
2019-05-06T20:18:47.508Z,8.33
2019-05-06T20:21:14.935Z,8.30
2019-05-06T20:23:42.573Z,8.29
2019-05-06T20:26:12.391Z,8.25
2019-05-06T20:28:39.602Z,8.23
2019-05-06T20:31:06.670Z,8.20
2019-05-06T20:33:33.746Z,8.10
2019-05-06T20:36:00.822Z,7.98
2019-05-06T20:38:27.906Z,7.92
2019-05-06T20:40:54.975Z,7.90
2019-05-06T20:43:23.974Z,7.85
2019-05-06T20:45:52.189Z,7.79
2019-05-06T20:48:19.510Z,7.76
2019-05-06T20:50:46.608Z,7.74
2019-05-06T20:53:13.680Z,7.69
2019-05-06T20:55:43.150Z,7.67
2019-05-06T20:58:12.054Z,7.62
2019-05-06T21:00:38.708Z,7.58
2019-05-06T21:03:05.815Z,7.55
2019-05-06T21:05:32.905Z,7.53
2019-05-06T21:08:02.035Z,7.54
2019-05-06T21:10:28.959Z,7.49
2019-05-06T21:12:56.031Z,7.40
2019-05-06T21:15:23.166Z,7.32
2019-05-06T21:17:50.204Z,7.30
2019-05-06T21:20:17.582Z,7.30
2019-05-06T21:22:44.677Z,7.32
2019-05-06T21:25:12.973Z,7.33
2019-05-06T21:27:42.263Z,7.28
2019-05-06T21:30:10.466Z,7.26
2019-05-06T21:32:37.534Z,7.26
2019-05-06T21:35:05.710Z,7.26
2019-05-06T21:37:32.776Z,7.20
2019-05-06T21:39:59.843Z,7.16
2019-05-06T21:42:26.918Z,7.13
2019-05-06T21:44:54.022Z,7.13
2019-05-06T21:47:21.101Z,7.17
2019-05-06T21:49:48.198Z,7.19
2019-05-06T21:52:15.270Z,7.21
2019-05-06T21:54:43.379Z,7.21
2019-05-06T21:57:12.227Z,7.18
2019-05-06T21:59:39.510Z,7.16
2019-05-06T22:02:07.968Z,7.17
2019-05-06T22:04:35.051Z,7.18
2019-05-06T22:07:03.041Z,7.16
2019-05-06T22:09:32.193Z,7.13
2019-05-06T22:11:59.184Z,7.08
2019-05-06T22:14:26.248Z,7.04
2019-05-06T22:16:53.307Z,6.99
2019-05-06T22:19:20.391Z,6.97
2019-05-06T22:22:07.752Z,6.99
2019-05-06T22:24:57.696Z,7.01
2019-05-06T22:27:22.173Z,7.02
2019-05-06T22:29:49.239Z,7.03
2019-05-06T22:32:16.318Z,7.05
2019-05-06T22:34:43.404Z,7.08
2019-05-06T22:37:12.537Z,7.10
2019-05-06T22:39:39.449Z,7.11
2019-05-06T22:42:06.511Z,7.12
2019-05-06T22:44:33.592Z,7.13
2019-05-06T22:47:02.621Z,7.15
2019-05-06T22:49:31.958Z,7.13
2019-05-06T22:51:58.696Z,7.09
2019-05-06T22:54:25.781Z,7.03
2019-05-06T22:56:54.566Z,7.02
2019-05-06T22:59:24.429Z,6.99
2019-05-06T23:02:10.367Z,6.94
2019-05-06T23:04:38.257Z,6.90
2019-05-06T23:07:05.335Z,6.84
2019-05-06T23:09:32.660Z,6.81
2019-05-06T23:11:59.775Z,6.78
2019-05-06T23:14:31.544Z,6.74
2019-05-06T23:16:55.818Z,6.70
2019-05-06T23:19:24.425Z,6.66
2019-05-06T23:21:53.329Z,6.62
2019-05-06T23:24:22.536Z,6.58
2019-05-06T23:26:49.905Z,6.52
2019-05-06T23:29:16.990Z,6.45
2019-05-06T23:31:44.062Z,6.37
2019-05-06T23:34:12.513Z,6.33
2019-05-06T23:37:22.832Z,6.27
2019-05-06T23:40:38.115Z,6.21
2019-05-06T23:43:42.845Z,6.14
2019-05-06T23:46:46.534Z,6.07
2019-05-06T23:49:52.553Z,5.98
2019-05-06T23:52:55.791Z,5.92
2019-05-06T23:55:59.839Z,5.88
2019-05-06T23:58:25.838Z,5.82
